createdAt,value
2023-05-13T00:04:18.020Z,42.40
2023-05-13T00:09:19.452Z,42.40
2023-05-13T00:14:20.881Z,42.40
2023-05-13T00:19:22.300Z,42.40
2023-05-13T00:24:23.706Z,42.40
2023-05-13T00:29:25.109Z,42.30
2023-05-13T00:34:26.539Z,42.20
2023-05-13T00:39:27.938Z,42.20
2023-05-13T00:44:29.343Z,42.10
2023-05-13T00:49:30.734Z,42.10
2023-05-13T00:54:32.132Z,42.10
2023-05-13T00:59:33.579Z,42.10
2023-05-13T01:04:34.971Z,42.00
2023-05-13T01:09:36.385Z,41.90
2023-05-13T01:14:37.816Z,41.90
2023-05-13T01:19:39.254Z,41.80
2023-05-13T01:24:40.726Z,41.90
2023-05-13T01:29:42.192Z,41.80
2023-05-13T01:34:43.596Z,41.80
2023-05-13T01:39:45.007Z,41.70
2023-05-13T01:44:46.406Z,41.70
2023-05-13T01:49:47.824Z,41.70
2023-05-13T01:54:49.340Z,41.60
2023-05-13T01:59:50.768Z,41.60
2023-05-13T02:04:52.162Z,41.60
2023-05-13T02:09:53.565Z,41.60
2023-05-13T02:14:54.968Z,41.50
2023-05-13T02:19:56.455Z,41.60
2023-05-13T02:24:57.864Z,41.40
2023-05-13T02:29:59.262Z,41.40
2023-05-13T02:35:00.677Z,41.40
2023-05-13T02:40:02.082Z,41.40
2023-05-13T02:45:03.488Z,41.30
2023-05-13T02:50:04.920Z,41.30
2023-05-13T02:55:06.376Z,41.30
2023-05-13T03:00:07.827Z,41.20
2023-05-13T03:05:09.241Z,41.20
2023-05-13T03:10:10.659Z,41.20
2023-05-13T03:15:12.068Z,41.20
2023-05-13T03:20:13.473Z,41.20
2023-05-13T03:25:14.882Z,41.20
2023-05-13T03:30:16.294Z,41.00
2023-05-13T03:35:17.675Z,41.00
2023-05-13T03:40:19.272Z,41.00
2023-05-13T03:45:20.813Z,41.00
2023-05-13T03:50:22.342Z,41.00
2023-05-13T03:55:23.922Z,41.00
2023-05-13T04:00:25.337Z,41.00
2023-05-13T04:05:26.720Z,41.00
2023-05-13T04:10:28.135Z,40.90
2023-05-13T04:15:29.523Z,40.90
2023-05-13T04:20:30.988Z,40.90
2023-05-13T04:25:32.391Z,40.80
2023-05-13T04:30:33.794Z,40.80
2023-05-13T04:35:35.209Z,40.80
2023-05-13T04:40:36.604Z,40.70
2023-05-13T04:45:37.999Z,40.80
2023-05-13T04:50:39.395Z,40.70
2023-05-13T04:55:41.298Z,40.70
2023-05-13T05:00:42.698Z,40.70
2023-05-13T05:05:44.114Z,40.70
2023-05-13T05:10:45.515Z,40.70
2023-05-13T05:15:46.920Z,40.70
2023-05-13T05:20:48.322Z,40.60
2023-05-13T05:25:55.153Z,40.60
2023-05-13T05:31:02.133Z,40.50
2023-05-13T05:36:03.737Z,40.40
2023-05-13T05:41:05.184Z,40.30
2023-05-13T05:46:06.607Z,40.40
2023-05-13T05:51:08.083Z,40.30
2023-05-13T05:56:09.483Z,40.20
2023-05-13T06:01:10.877Z,40.00
2023-05-13T06:06:12.262Z,40.10
2023-05-13T06:11:13.676Z,40.10
2023-05-13T06:16:15.162Z,40.00
2023-05-13T06:21:16.634Z,40.40
2023-05-13T06:26:18.038Z,39.90
2023-05-13T06:31:19.490Z,39.90
2023-05-13T06:36:20.971Z,40.70
2023-05-13T06:41:22.378Z,40.10
2023-05-13T06:46:23.834Z,40.20
2023-05-13T06:51:25.238Z,40.10
2023-05-13T06:56:26.644Z,40.10
2023-05-13T07:01:28.274Z,40.00
2023-05-13T07:06:29.714Z,39.90
2023-05-13T07:11:31.133Z,40.00
2023-05-13T07:16:32.536Z,39.80
2023-05-13T07:21:33.945Z,39.90
2023-05-13T07:26:35.347Z,39.80
2023-05-13T07:31:36.746Z,40.00
2023-05-13T07:36:38.184Z,40.10
2023-05-13T07:41:39.615Z,40.20
2023-05-13T07:46:41.065Z,40.20
2023-05-13T07:51:42.508Z,40.20
2023-05-13T07:56:43.943Z,40.80
2023-05-13T08:01:46.393Z,40.10
2023-05-13T08:06:47.810Z,40.00
2023-05-13T08:11:49.313Z,39.60
2023-05-13T08:16:50.809Z,39.70
2023-05-13T08:21:52.299Z,39.60
2023-05-13T08:26:53.700Z,39.40
2023-05-13T08:31:55.134Z,39.40
2023-05-13T08:36:56.581Z,39.50
2023-05-13T08:41:57.968Z,39.50
2023-05-13T08:46:59.361Z,39.40
2023-05-13T08:52:00.750Z,39.80
2023-05-13T08:57:02.178Z,39.10
2023-05-13T09:02:03.588Z,39.20
2023-05-13T09:07:04.984Z,39.20
2023-05-13T09:12:06.378Z,39.10
2023-05-13T09:17:07.797Z,39.00
2023-05-13T09:22:09.231Z,38.90
2023-05-13T09:27:10.627Z,38.90
2023-05-13T09:32:12.127Z,38.60
2023-05-13T09:37:13.528Z,38.40
2023-05-13T09:42:14.943Z,38.10
2023-05-13T09:47:16.610Z,37.80
2023-05-13T09:52:18.096Z,36.70
2023-05-13T09:57:19.527Z,36.40
2023-05-13T10:02:20.918Z,36.00
2023-05-13T10:07:22.313Z,36.60
2023-05-13T10:12:23.714Z,36.60
2023-05-13T10:17:25.118Z,35.30
2023-05-13T10:22:26.529Z,35.00
2023-05-13T10:27:27.968Z,35.10
2023-05-13T10:32:29.399Z,34.90
2023-05-13T10:37:30.820Z,35.00
2023-05-13T10:42:32.252Z,34.80
2023-05-13T10:47:33.754Z,34.80
2023-05-13T10:52:35.306Z,34.40
2023-05-13T10:57:36.704Z,34.20
2023-05-13T11:02:38.202Z,34.30
2023-05-13T11:07:39.656Z,34.40
2023-05-13T11:12:41.062Z,34.50
2023-05-13T11:17:42.551Z,33.60
2023-05-13T11:22:43.976Z,33.00
2023-05-13T11:27:45.380Z,32.80
2023-05-13T11:32:46.834Z,33.10
2023-05-13T11:37:48.299Z,33.40
2023-05-13T11:42:49.700Z,33.60
2023-05-13T11:47:51.153Z,33.50
2023-05-13T11:52:52.636Z,33.30
2023-05-13T11:57:54.078Z,33.20
2023-05-13T12:02:55.606Z,33.10
2023-05-13T12:07:57.100Z,32.30
2023-05-13T12:12:58.519Z,32.20
2023-05-13T12:17:59.948Z,32.00
2023-05-13T12:23:01.421Z,31.80
2023-05-13T12:28:02.831Z,31.10
2023-05-13T12:33:04.417Z,30.90
2023-05-13T12:38:06.045Z,30.70
2023-05-13T12:43:07.420Z,30.40
2023-05-13T12:48:08.864Z,30.50
2023-05-13T12:53:10.318Z,30.50
2023-05-13T12:58:11.732Z,30.30
2023-05-13T13:03:13.214Z,30.50
2023-05-13T13:08:14.723Z,29.70
2023-05-13T13:13:16.131Z,29.40
2023-05-13T13:18:17.523Z,29.30
2023-05-13T13:23:18.924Z,29.40
2023-05-13T13:28:20.339Z,29.30
2023-05-13T13:33:21.756Z,28.60
2023-05-13T13:38:23.184Z,28.70
2023-05-13T13:43:24.590Z,28.60
2023-05-13T13:48:25.983Z,28.70
2023-05-13T13:53:27.379Z,28.70
2023-05-13T13:58:28.780Z,28.80
2023-05-13T14:03:30.335Z,28.80
2023-05-13T14:08:31.794Z,28.80
2023-05-13T14:13:33.230Z,28.70
2023-05-13T14:18:34.681Z,28.70
2023-05-13T14:23:36.094Z,28.90
2023-05-13T14:28:37.487Z,29.10
2023-05-13T14:33:38.891Z,29.20
2023-05-13T14:38:40.298Z,29.20
2023-05-13T14:43:41.683Z,29.20
2023-05-13T14:48:43.091Z,29.40
2023-05-13T14:53:44.486Z,29.50
2023-05-13T14:58:45.880Z,29.90
2023-05-13T15:03:47.298Z,30.50
2023-05-13T15:08:48.707Z,30.80
2023-05-13T15:13:50.124Z,31.10
2023-05-13T15:18:51.574Z,30.60
2023-05-13T15:23:53.165Z,30.00
2023-05-13T15:28:54.567Z,30.00
2023-05-13T15:33:55.982Z,30.10
2023-05-13T15:38:57.432Z,31.00
2023-05-13T15:43:58.848Z,31.40
2023-05-13T15:49:00.471Z,32.20
2023-05-13T15:54:01.933Z,32.60
2023-05-13T15:59:03.333Z,32.60
2023-05-13T16:04:04.816Z,32.60
2023-05-13T16:09:06.272Z,32.70
2023-05-13T16:14:07.783Z,32.70
2023-05-13T16:19:09.303Z,32.80
2023-05-13T16:24:10.727Z,32.90
2023-05-13T16:29:12.123Z,33.10
2023-05-13T16:34:13.536Z,33.10
2023-05-13T16:39:14.958Z,33.30
2023-05-13T16:44:16.354Z,33.40
2023-05-13T16:49:17.834Z,33.50
2023-05-13T16:54:19.357Z,33.60
2023-05-13T16:59:20.759Z,33.30
2023-05-13T17:04:22.156Z,33.50
2023-05-13T17:09:23.569Z,33.10
2023-05-13T17:14:24.976Z,33.90
2023-05-13T17:19:26.381Z,33.80
2023-05-13T17:24:27.777Z,34.50
2023-05-13T17:29:29.169Z,33.20
2023-05-13T17:34:30.569Z,34.20
2023-05-13T17:39:31.986Z,34.60
2023-05-13T17:44:33.373Z,34.40
2023-05-13T17:49:34.772Z,34.00
2023-05-13T17:54:36.169Z,34.50
2023-05-13T17:59:37.574Z,34.50
2023-05-13T18:04:38.985Z,34.60
2023-05-13T18:09:40.386Z,34.80
2023-05-13T18:14:41.777Z,35.10
2023-05-13T18:19:43.186Z,35.50
2023-05-13T18:24:44.612Z,35.70
2023-05-13T18:29:46.163Z,35.50
2023-05-13T18:34:47.588Z,35.30
2023-05-13T18:39:48.998Z,35.40
2023-05-13T18:44:50.409Z,36.10
2023-05-13T18:49:51.813Z,35.90
2023-05-13T18:54:53.222Z,35.90
2023-05-13T18:59:54.617Z,35.90
2023-05-13T19:04:56.066Z,35.90
2023-05-13T19:09:57.481Z,36.00
2023-05-13T19:14:58.890Z,36.20
2023-05-13T19:20:00.459Z,36.10
2023-05-13T19:25:01.948Z,36.10
2023-05-13T19:30:03.336Z,36.20
2023-05-13T19:35:05.055Z,36.40
2023-05-13T19:40:06.465Z,36.40
2023-05-13T19:45:07.903Z,36.40
2023-05-13T19:50:09.372Z,36.50
2023-05-13T19:55:10.787Z,36.60
2023-05-13T20:00:12.210Z,36.60
2023-05-13T20:05:13.618Z,36.60
2023-05-13T20:10:15.008Z,36.80
2023-05-13T20:15:18.471Z,36.80
2023-05-13T20:20:20.156Z,36.90
2023-05-13T20:25:21.595Z,36.90
2023-05-13T20:30:23.041Z,37.00
2023-05-13T20:35:24.597Z,37.00
2023-05-13T20:40:26.034Z,37.10
2023-05-13T20:45:27.446Z,37.20
2023-05-13T20:50:28.860Z,37.30
2023-05-13T20:55:30.259Z,37.30
2023-05-13T21:00:31.645Z,37.40
2023-05-13T21:05:33.054Z,37.40
2023-05-13T21:10:34.459Z,37.50
2023-05-13T21:15:35.908Z,37.60
2023-05-13T21:20:37.321Z,37.60
2023-05-13T21:25:38.711Z,37.60
2023-05-13T21:30:40.118Z,37.60
2023-05-13T21:35:41.516Z,37.70
2023-05-13T21:40:42.925Z,37.70
2023-05-13T21:45:44.331Z,37.80
2023-05-13T21:50:45.725Z,37.80
2023-05-13T21:55:47.116Z,37.80
2023-05-13T22:00:48.572Z,37.90
2023-05-13T22:05:49.977Z,37.90
2023-05-13T22:10:51.379Z,38.00
2023-05-13T22:15:52.838Z,38.00
2023-05-13T22:20:54.263Z,38.00
2023-05-13T22:25:55.662Z,38.00
2023-05-13T22:30:57.088Z,38.00
2023-05-13T22:35:58.490Z,38.10
2023-05-13T22:40:59.888Z,38.10
2023-05-13T22:46:01.311Z,38.70
2023-05-13T22:51:02.725Z,38.10
2023-05-13T22:56:04.130Z,38.10
2023-05-13T23:01:05.538Z,38.20
2023-05-13T23:06:06.959Z,38.20
2023-05-13T23:11:08.380Z,38.20
2023-05-13T23:16:09.829Z,38.30
2023-05-13T23:21:11.231Z,38.30
2023-05-13T23:26:12.631Z,38.90
2023-05-13T23:31:14.070Z,38.40
2023-05-13T23:36:15.490Z,38.40
2023-05-13T23:41:16.896Z,38.40
2023-05-13T23:46:18.399Z,38.40
2023-05-13T23:51:19.874Z,38.50
2023-05-13T23:56:21.283Z,38.40
